sensor_id;sensor_type;location;lat;lon;timestamp;pressure;altitude;pressure_sealevel;temperature;humidity
21821;BME280;11073;48.586;12.066;2023-02-28T00:02:25;97025.16;;;-0.12;53.38
21821;BME280;11073;48.586;12.066;2023-02-28T00:05:17;96997.34;;;-0.43;53.31
21821;BME280;11073;48.586;12.066;2023-02-28T00:08:07;97011.22;;;-0.32;53.67
21821;BME280;11073;48.586;12.066;2023-02-28T00:11:00;97007.88;;;-0.34;53.72
21821;BME280;11073;48.586;12.066;2023-02-28T00:13:49;97012.22;;;-0.33;53.58
21821;BME280;11073;48.586;12.066;2023-02-28T00:16:39;97011.75;;;-0.28;53.49
21821;BME280;11073;48.586;12.066;2023-02-28T00:19:29;97019.41;;;-0.25;53.79
21821;BME280;11073;48.586;12.066;2023-02-28T00:22:20;97008.38;;;-0.30;53.67
21821;BME280;11073;48.586;12.066;2023-02-28T00:25:11;97005.88;;;-0.32;53.92
21821;BME280;11073;48.586;12.066;2023-02-28T00:28:01;97007.63;;;-0.48;53.81
21821;BME280;11073;48.586;12.066;2023-02-28T00:30:50;96994.59;;;-0.51;53.83
21821;BME280;11073;48.586;12.066;2023-02-28T00:33:39;97001.50;;;-0.41;53.95
21821;BME280;11073;48.586;12.066;2023-02-28T00:36:29;97003.63;;;-0.44;54.04
21821;BME280;11073;48.586;12.066;2023-02-28T00:39:19;97001.81;;;-0.44;54.31
21821;BME280;11073;48.586;12.066;2023-02-28T00:42:08;96998.03;;;-0.41;54.39
21821;BME280;11073;48.586;12.066;2023-02-28T00:44:57;97004.00;;;-0.39;54.14
21821;BME280;11073;48.586;12.066;2023-02-28T00:47:47;96997.34;;;-0.43;54.32
21821;BME280;11073;48.586;12.066;2023-02-28T00:50:38;97008.28;;;-0.46;54.23
21821;BME280;11073;48.586;12.066;2023-02-28T00:53:29;96995.81;;;-0.46;54.51
21821;BME280;11073;48.586;12.066;2023-02-28T00:56:20;96999.63;;;-0.48;54.43
21821;BME280;11073;48.586;12.066;2023-02-28T00:59:09;96995.00;;;-0.46;54.51
21821;BME280;11073;48.586;12.066;2023-02-28T01:01:58;96991.03;;;-0.42;54.63
21821;BME280;11073;48.586;12.066;2023-02-28T01:04:48;96995.25;;;-0.58;54.64
21821;BME280;11073;48.586;12.066;2023-02-28T01:07:37;96980.91;;;-0.65;54.80
21821;BME280;11073;48.586;12.066;2023-02-28T01:10:28;96987.94;;;-0.56;54.64
21821;BME280;11073;48.586;12.066;2023-02-28T01:13:19;96992.22;;;-0.63;54.75
21821;BME280;11073;48.586;12.066;2023-02-28T01:16:08;96992.84;;;-0.69;54.81
21821;BME280;11073;48.586;12.066;2023-02-28T01:18:57;96994.88;;;-0.63;55.23
21821;BME280;11073;48.586;12.066;2023-02-28T01:21:46;96993.88;;;-0.62;55.13
21821;BME280;11073;48.586;12.066;2023-02-28T01:24:35;96991.69;;;-0.66;55.05
21821;BME280;11073;48.586;12.066;2023-02-28T01:27:27;96983.34;;;-0.71;55.16
21821;BME280;11073;48.586;12.066;2023-02-28T01:30:18;96986.06;;;-0.63;55.31
21821;BME280;11073;48.586;12.066;2023-02-28T01:33:07;96981.25;;;-0.60;55.24
21821;BME280;11073;48.586;12.066;2023-02-28T01:36:00;96968.75;;;-0.67;55.19
21821;BME280;11073;48.586;12.066;2023-02-28T01:38:49;96973.84;;;-0.74;55.21
21821;BME280;11073;48.586;12.066;2023-02-28T01:41:40;96968.84;;;-0.77;55.47
21821;BME280;11073;48.586;12.066;2023-02-28T01:45:00;96960.19;;;-0.79;55.50
21821;BME280;11073;48.586;12.066;2023-02-28T01:47:54;96971.34;;;-0.75;55.61
21821;BME280;11073;48.586;12.066;2023-02-28T01:50:45;96964.25;;;-0.67;55.62
21821;BME280;11073;48.586;12.066;2023-02-28T01:53:39;96963.59;;;-0.69;55.63
21821;BME280;11073;48.586;12.066;2023-02-28T01:56:34;96956.06;;;-0.73;55.81
21821;BME280;11073;48.586;12.066;2023-02-28T01:59:27;96959.25;;;-0.70;55.97
21821;BME280;11073;48.586;12.066;2023-02-28T02:02:21;96965.78;;;-0.64;55.92
21821;BME280;11073;48.586;12.066;2023-02-28T02:05:15;96952.72;;;-0.75;55.78
21821;BME280;11073;48.586;12.066;2023-02-28T02:08:07;96962.03;;;-0.79;55.92
21821;BME280;11073;48.586;12.066;2023-02-28T02:10:59;96958.81;;;-0.83;56.16
21821;BME280;11073;48.586;12.066;2023-02-28T02:14:00;96953.72;;;-0.76;56.25
21821;BME280;11073;48.586;12.066;2023-02-28T02:17:03;96955.41;;;-0.75;56.25
21821;BME280;11073;48.586;12.066;2023-02-28T02:23:56;96958.50;;;-0.80;56.41
21821;BME280;11073;48.586;12.066;2023-02-28T02:27:09;96958.94;;;-0.93;56.34
21821;BME280;11073;48.586;12.066;2023-02-28T02:30:23;96957.56;;;-0.97;56.64
21821;BME280;11073;48.586;12.066;2023-02-28T02:33:38;96957.63;;;-0.89;56.64
21821;BME280;11073;48.586;12.066;2023-02-28T02:36:38;96956.16;;;-0.83;56.88
21821;BME280;11073;48.586;12.066;2023-02-28T02:39:32;96960.72;;;-0.75;56.77
21821;BME280;11073;48.586;12.066;2023-02-28T02:42:28;96946.69;;;-0.86;56.71
21821;BME280;11073;48.586;12.066;2023-02-28T02:45:24;96962.53;;;-0.76;56.88
21821;BME280;11073;48.586;12.066;2023-02-28T02:48:17;96951.22;;;-0.78;56.77
21821;BME280;11073;48.586;12.066;2023-02-28T02:51:13;96956.75;;;-0.71;56.84
21821;BME280;11073;48.586;12.066;2023-02-28T02:54:07;96959.78;;;-0.66;56.87
21821;BME280;11073;48.586;12.066;2023-02-28T02:57:03;96960.75;;;-0.67;56.97
21821;BME280;11073;48.586;12.066;2023-02-28T02:59:55;96966.84;;;-0.75;56.76
21821;BME280;11073;48.586;12.066;2023-02-28T03:02:46;96968.53;;;-0.74;56.88
21821;BME280;11073;48.586;12.066;2023-02-28T03:05:42;96965.88;;;-0.74;56.93
21821;BME280;11073;48.586;12.066;2023-02-28T03:08:36;96970.13;;;-0.81;56.95
21821;BME280;11073;48.586;12.066;2023-02-28T03:11:29;96974.00;;;-0.75;57.09
21821;BME280;11073;48.586;12.066;2023-02-28T03:14:30;96970.19;;;-0.73;57.08
21821;BME280;11073;48.586;12.066;2023-02-28T03:17:32;96969.22;;;-0.72;57.05
21821;BME280;11073;48.586;12.066;2023-02-28T03:20:35;96970.34;;;-0.74;57.03
21821;BME280;11073;48.586;12.066;2023-02-28T03:23:37;96973.16;;;-0.76;57.10
21821;BME280;11073;48.586;12.066;2023-02-28T03:26:29;96965.53;;;-0.79;57.07
21821;BME280;11073;48.586;12.066;2023-02-28T03:29:21;96965.19;;;-0.76;57.13
21821;BME280;11073;48.586;12.066;2023-02-28T03:32:17;96963.00;;;-0.80;57.24
21821;BME280;11073;48.586;12.066;2023-02-28T03:35:11;96967.13;;;-0.86;56.96
21821;BME280;11073;48.586;12.066;2023-02-28T03:38:11;96937.06;;;-1.04;57.15
21821;BME280;11073;48.586;12.066;2023-02-28T03:41:05;96965.44;;;-0.87;57.35
21821;BME280;11073;48.586;12.066;2023-02-28T03:43:58;96962.66;;;-0.86;57.20
21821;BME280;11073;48.586;12.066;2023-02-28T03:47:00;96960.06;;;-0.95;57.47
21821;BME280;11073;48.586;12.066;2023-02-28T03:49:55;96962.88;;;-0.97;57.39
21821;BME280;11073;48.586;12.066;2023-02-28T03:52:49;96964.38;;;-0.94;57.42
21821;BME280;11073;48.586;12.066;2023-02-28T03:55:42;96963.13;;;-1.08;57.47
21821;BME280;11073;48.586;12.066;2023-02-28T03:58:37;96951.13;;;-1.12;57.63
21821;BME280;11073;48.586;12.066;2023-02-28T04:01:33;96965.84;;;-1.00;57.68
21821;BME280;11073;48.586;12.066;2023-02-28T04:04:25;96967.69;;;-1.00;57.71
21821;BME280;11073;48.586;12.066;2023-02-28T04:07:15;96964.19;;;-1.01;57.68
21821;BME280;11073;48.586;12.066;2023-02-28T04:10:04;96967.13;;;-1.04;57.65
21821;BME280;11073;48.586;12.066;2023-02-28T04:12:53;96967.97;;;-1.03;57.84
21821;BME280;11073;48.586;12.066;2023-02-28T04:15:42;96967.69;;;-1.00;57.62
21821;BME280;11073;48.586;12.066;2023-02-28T04:18:33;96965.47;;;-1.05;57.90
21821;BME280;11073;48.586;12.066;2023-02-28T04:21:21;96972.28;;;-1.02;57.99
21821;BME280;11073;48.586;12.066;2023-02-28T04:24:15;96953.78;;;-1.12;57.82
21821;BME280;11073;48.586;12.066;2023-02-28T04:27:04;96969.78;;;-1.04;57.85
21821;BME280;11073;48.586;12.066;2023-02-28T04:29:54;96974.28;;;-1.04;57.66
21821;BME280;11073;48.586;12.066;2023-02-28T04:32:42;96952.78;;;-1.11;57.93
21821;BME280;11073;48.586;12.066;2023-02-28T04:35:33;96975.09;;;-1.04;57.85
21821;BME280;11073;48.586;12.066;2023-02-28T04:38:22;96975.09;;;-1.04;57.97
21821;BME280;11073;48.586;12.066;2023-02-28T04:41:12;96971.94;;;-1.07;57.93
21821;BME280;11073;48.586;12.066;2023-02-28T04:44:01;96974.03;;;-1.11;57.88
21821;BME280;11073;48.586;12.066;2023-02-28T04:46:50;96985.50;;;-1.11;57.92
21821;BME280;11073;48.586;12.066;2023-02-28T04:49:39;96973.16;;;-1.20;57.92
21821;BME280;11073;48.586;12.066;2023-02-28T04:52:30;96980.44;;;-1.22;57.81
21821;BME280;11073;48.586;12.066;2023-02-28T04:55:19;96994.09;;;-1.17;58.00
21821;BME280;11073;48.586;12.066;2023-02-28T04:58:07;96965.94;;;-1.27;58.13
21821;BME280;11073;48.586;12.066;2023-02-28T05:01:01;97000.25;;;-1.16;58.04
21821;BME280;11073;48.586;12.066;2023-02-28T05:03:53;96994.91;;;-1.16;57.82
21821;BME280;11073;48.586;12.066;2023-02-28T05:06:43;96998.66;;;-1.27;57.94
21821;BME280;11073;48.586;12.066;2023-02-28T05:09:33;96994.25;;;-1.36;57.83
21821;BME280;11073;48.586;12.066;2023-02-28T05:12:22;97000.56;;;-1.37;57.99
21821;BME280;11073;48.586;12.066;2023-02-28T05:15:12;96992.28;;;-1.34;58.11
21821;BME280;11073;48.586;12.066;2023-02-28T05:18:01;96996.16;;;-1.28;58.27
21821;BME280;11073;48.586;12.066;2023-02-28T05:20:50;96996.00;;;-1.27;58.02
21821;BME280;11073;48.586;12.066;2023-02-28T05:23:39;97003.13;;;-1.27;58.24
21821;BME280;11073;48.586;12.066;2023-02-28T05:26:30;96989.22;;;-1.39;58.28
21821;BME280;11073;48.586;12.066;2023-02-28T05:29:19;96987.28;;;-1.37;58.26
21821;BME280;11073;48.586;12.066;2023-02-28T05:32:09;96998.97;;;-1.30;58.18
21821;BME280;11073;48.586;12.066;2023-02-28T05:34:58;96992.66;;;-1.29;58.26
21821;BME280;11073;48.586;12.066;2023-02-28T05:37:47;97004.28;;;-1.30;58.34
21821;BME280;11073;48.586;12.066;2023-02-28T05:40:38;97000.91;;;-1.32;58.23
21821;BME280;11073;48.586;12.066;2023-02-28T05:43:28;97008.88;;;-1.32;58.40
21821;BME280;11073;48.586;12.066;2023-02-28T05:46:17;97009.22;;;-1.35;58.20
21821;BME280;11073;48.586;12.066;2023-02-28T05:49:06;97008.28;;;-1.44;58.28
21821;BME280;11073;48.586;12.066;2023-02-28T05:51:55;97016.38;;;-1.45;58.34
21821;BME280;11073;48.586;12.066;2023-02-28T05:54:46;97007.59;;;-1.46;58.49
21821;BME280;11073;48.586;12.066;2023-02-28T05:57:35;97019.75;;;-1.43;58.52
21821;BME280;11073;48.586;12.066;2023-02-28T06:00:25;97020.28;;;-1.40;58.57
21821;BME280;11073;48.586;12.066;2023-02-28T06:03:16;97017.38;;;-1.46;58.59
21821;BME280;11073;48.586;12.066;2023-02-28T06:06:05;97028.41;;;-1.41;58.64
21821;BME280;11073;48.586;12.066;2023-02-28T06:08:55;97014.59;;;-1.45;58.55
21821;BME280;11073;48.586;12.066;2023-02-28T06:11:44;97025.44;;;-1.38;58.64
21821;BME280;11073;48.586;12.066;2023-02-28T06:14:34;97034.94;;;-1.35;58.67
21821;BME280;11073;48.586;12.066;2023-02-28T06:17:24;97027.81;;;-1.35;58.64
21821;BME280;11073;48.586;12.066;2023-02-28T06:20:16;97031.28;;;-1.34;58.67
21821;BME280;11073;48.586;12.066;2023-02-28T06:23:05;97027.81;;;-1.35;58.58
21821;BME280;11073;48.586;12.066;2023-02-28T06:25:54;97036.16;;;-1.30;58.75
21821;BME280;11073;48.586;12.066;2023-02-28T06:28:45;97036.28;;;-1.31;58.57
21821;BME280;11073;48.586;12.066;2023-02-28T06:31:34;97037.28;;;-1.32;58.57
21821;BME280;11073;48.586;12.066;2023-02-28T06:34:24;97027.00;;;-1.45;58.63
21821;BME280;11073;48.586;12.066;2023-02-28T06:37:13;97041.09;;;-1.35;58.65
21821;BME280;11073;48.586;12.066;2023-02-28T06:40:02;97038.44;;;-1.35;58.80
21821;BME280;11073;48.586;12.066;2023-02-28T06:42:51;97044.56;;;-1.34;58.69
21821;BME280;11073;48.586;12.066;2023-02-28T06:45:42;97052.63;;;-1.26;58.78
21821;BME280;11073;48.586;12.066;2023-02-28T06:48:32;97057.63;;;-1.23;58.74
21821;BME280;11073;48.586;12.066;2023-02-28T06:51:23;97054.69;;;-1.20;58.69
21821;BME280;11073;48.586;12.066;2023-02-28T06:54:12;97056.91;;;-1.16;58.59
21821;BME280;11073;48.586;12.066;2023-02-28T06:57:01;97056.44;;;-1.11;58.61
21821;BME280;11073;48.586;12.066;2023-02-28T06:59:50;97055.31;;;-1.08;58.53
21821;BME280;11073;48.586;12.066;2023-02-28T07:02:40;97057.81;;;-1.07;58.52
21821;BME280;11073;48.586;12.066;2023-02-28T07:05:29;97063.97;;;-1.06;58.50
21821;BME280;11073;48.586;12.066;2023-02-28T07:08:19;97068.13;;;-1.04;58.44
21821;BME280;11073;48.586;12.066;2023-02-28T07:11:08;97066.91;;;-1.09;58.45
21821;BME280;11073;48.586;12.066;2023-02-28T07:13:57;97060.72;;;-1.00;58.51
21821;BME280;11073;48.586;12.066;2023-02-28T07:16:46;97064.19;;;-1.00;58.48
21821;BME280;11073;48.586;12.066;2023-02-28T07:19:35;97066.09;;;-0.92;58.41
21821;BME280;11073;48.586;12.066;2023-02-28T07:22:25;97061.47;;;-0.90;58.44
21821;BME280;11073;48.586;12.066;2023-02-28T07:25:15;97027.81;;;-0.99;58.39
21821;BME280;11073;48.586;12.066;2023-02-28T07:28:03;97067.63;;;-0.72;58.23
21821;BME280;11073;48.586;12.066;2023-02-28T07:30:52;97065.69;;;-0.62;58.39
21821;BME280;11073;48.586;12.066;2023-02-28T07:33:41;97065.47;;;-0.50;58.31
21821;BME280;11073;48.586;12.066;2023-02-28T07:36:30;97074.63;;;-0.45;58.13
21821;BME280;11073;48.586;12.066;2023-02-28T07:39:20;97063.22;;;-0.37;58.11
21821;BME280;11073;48.586;12.066;2023-02-28T07:42:11;97061.97;;;-0.25;57.97
21821;BME280;11073;48.586;12.066;2023-02-28T07:45:00;97062.38;;;-0.20;57.83
21821;BME280;11073;48.586;12.066;2023-02-28T07:47:49;97057.75;;;-0.10;57.83
21821;BME280;11073;48.586;12.066;2023-02-28T07:50:38;97063.97;;;-0.01;57.55
21821;BME280;11073;48.586;12.066;2023-02-28T07:53:27;97066.00;;;0.05;57.14
21821;BME280;11073;48.586;12.066;2023-02-28T07:56:16;97058.81;;;-0.03;57.07
21821;BME280;11073;48.586;12.066;2023-02-28T07:59:07;97067.03;;;0.12;57.17
21821;BME280;11073;48.586;12.066;2023-02-28T08:01:57;97070.06;;;0.17;56.90
21821;BME280;11073;48.586;12.066;2023-02-28T08:04:47;97072.41;;;0.20;56.59
21821;BME280;11073;48.586;12.066;2023-02-28T08:07:36;97072.91;;;0.16;56.45
21821;BME280;11073;48.586;12.066;2023-02-28T08:10:25;97082.28;;;0.36;56.43
21821;BME280;11073;48.586;12.066;2023-02-28T08:13:15;97078.91;;;0.52;56.33
21821;BME280;11073;48.586;12.066;2023-02-28T08:16:06;97076.66;;;0.73;56.57
21821;BME280;11073;48.586;12.066;2023-02-28T08:18:55;97071.81;;;0.77;55.95
21821;BME280;11073;48.586;12.066;2023-02-28T08:21:44;97066.47;;;0.77;55.44
21821;BME280;11073;48.586;12.066;2023-02-28T08:24:33;97066.84;;;0.90;55.61
21821;BME280;11073;48.586;12.066;2023-02-28T08:27:23;97062.69;;;0.88;55.00
21821;BME280;11073;48.586;12.066;2023-02-28T08:30:13;97070.34;;;0.91;55.01
21821;BME280;11073;48.586;12.066;2023-02-28T08:33:05;97074.03;;;0.98;54.71
21821;BME280;11073;48.586;12.066;2023-02-28T08:35:54;97077.56;;;1.15;54.67
21821;BME280;11073;48.586;12.066;2023-02-28T08:38:43;97076.25;;;1.19;54.31
21821;BME280;11073;48.586;12.066;2023-02-28T08:41:33;97076.78;;;1.30;54.09
21821;BME280;11073;48.586;12.066;2023-02-28T08:44:23;97083.94;;;1.38;53.91
21821;BME280;11073;48.586;12.066;2023-02-28T08:47:12;97079.75;;;1.44;53.69
21821;BME280;11073;48.586;12.066;2023-02-28T08:50:03;97075.59;;;1.57;53.68
21821;BME280;11073;48.586;12.066;2023-02-28T08:52:52;97077.28;;;1.75;53.48
21821;BME280;11073;48.586;12.066;2023-02-28T08:55:41;97089.25;;;1.95;53.42
21821;BME280;11073;48.586;12.066;2023-02-28T08:58:29;97078.22;;;2.14;53.21
21821;BME280;11073;48.586;12.066;2023-02-28T09:01:20;97083.19;;;2.34;53.01
21821;BME280;11073;48.586;12.066;2023-02-28T09:04:09;97097.34;;;2.42;52.16
21821;BME280;11073;48.586;12.066;2023-02-28T09:07:04;97081.63;;;2.47;52.12
21821;BME280;11073;48.586;12.066;2023-02-28T09:09:54;97102.81;;;2.57;51.78
21821;BME280;11073;48.586;12.066;2023-02-28T09:12:43;97097.22;;;2.75;51.79
21821;BME280;11073;48.586;12.066;2023-02-28T09:15:34;97097.97;;;3.00;51.47
21821;BME280;11073;48.586;12.066;2023-02-28T09:18:25;97090.94;;;2.99;50.96
21821;BME280;11073;48.586;12.066;2023-02-28T09:21:16;97098.66;;;3.25;51.09
21821;BME280;11073;48.586;12.066;2023-02-28T09:24:07;97099.13;;;3.28;50.21
21821;BME280;11073;48.586;12.066;2023-02-28T09:26:56;97099.63;;;3.55;50.49
21821;BME280;11073;48.586;12.066;2023-02-28T09:29:52;97098.13;;;3.75;50.27
21821;BME280;11073;48.586;12.066;2023-02-28T09:32:41;97103.09;;;4.01;49.94
21821;BME280;11073;48.586;12.066;2023-02-28T09:35:42;97083.50;;;4.01;49.53
21821;BME280;11073;48.586;12.066;2023-02-28T09:38:31;97107.88;;;4.29;49.29
21821;BME280;11073;48.586;12.066;2023-02-28T09:41:23;97106.28;;;4.34;49.14
21821;BME280;11073;48.586;12.066;2023-02-28T09:44:20;97109.56;;;4.45;48.66
21821;BME280;11073;48.586;12.066;2023-02-28T09:47:16;97098.44;;;4.48;48.15
21821;BME280;11073;48.586;12.066;2023-02-28T09:50:17;97113.59;;;4.40;47.74
21821;BME280;11073;48.586;12.066;2023-02-28T09:53:18;97111.84;;;4.48;47.68
21821;BME280;11073;48.586;12.066;2023-02-28T09:56:10;97116.97;;;4.72;47.81
21821;BME280;11073;48.586;12.066;2023-02-28T09:59:05;97103.56;;;4.72;47.30
21821;BME280;11073;48.586;12.066;2023-02-28T10:02:04;97123.03;;;5.10;47.58
21821;BME280;11073;48.586;12.066;2023-02-28T10:05:02;97110.53;;;5.17;46.79
21821;BME280;11073;48.586;12.066;2023-02-28T10:08:08;97114.41;;;5.15;46.67
21821;BME280;11073;48.586;12.066;2023-02-28T10:11:03;97113.41;;;5.52;46.64
21821;BME280;11073;48.586;12.066;2023-02-28T10:13:58;97120.56;;;5.88;46.36
21821;BME280;11073;48.586;12.066;2023-02-28T10:16:54;97120.75;;;5.86;45.68
21821;BME280;11073;48.586;12.066;2023-02-28T10:19:55;97125.56;;;6.12;45.96
21821;BME280;11073;48.586;12.066;2023-02-28T10:22:58;97129.84;;;6.06;44.67
21821;BME280;11073;48.586;12.066;2023-02-28T10:25:53;97126.41;;;5.91;45.06
21821;BME280;11073;48.586;12.066;2023-02-28T10:28:42;97129.50;;;6.10;45.07
21821;BME280;11073;48.586;12.066;2023-02-28T10:31:32;97132.09;;;6.24;44.87
21821;BME280;11073;48.586;12.066;2023-02-28T10:34:22;97136.38;;;6.19;43.77
21821;BME280;11073;48.586;12.066;2023-02-28T10:37:13;97148.00;;;6.47;44.40
21821;BME280;11073;48.586;12.066;2023-02-28T10:40:04;97128.50;;;6.73;44.54
21821;BME280;11073;48.586;12.066;2023-02-28T10:42:56;97128.19;;;6.89;44.12
21821;BME280;11073;48.586;12.066;2023-02-28T10:45:54;97140.63;;;6.90;43.11
21821;BME280;11073;48.586;12.066;2023-02-28T10:48:48;97138.94;;;6.83;43.27
21821;BME280;11073;48.586;12.066;2023-02-28T10:51:41;97135.25;;;6.90;43.21
21821;BME280;11073;48.586;12.066;2023-02-28T10:54:33;97141.00;;;7.29;43.21
21821;BME280;11073;48.586;12.066;2023-02-28T10:57:24;97139.34;;;7.28;42.92
21821;BME280;11073;48.586;12.066;2023-02-28T11:00:16;97136.47;;;7.36;42.62
21821;BME280;11073;48.586;12.066;2023-02-28T11:03:24;97130.59;;;7.73;42.63
21821;BME280;11073;48.586;12.066;2023-02-28T11:06:17;97137.47;;;7.89;42.01
21821;BME280;11073;48.586;12.066;2023-02-28T11:09:19;97128.09;;;7.65;41.26
21821;BME280;11073;48.586;12.066;2023-02-28T11:12:20;97131.22;;;7.69;41.62
21821;BME280;11073;48.586;12.066;2023-02-28T11:15:22;97114.84;;;7.70;41.63
21821;BME280;11073;48.586;12.066;2023-02-28T11:18:22;97127.69;;;7.82;40.80
21821;BME280;11073;48.586;12.066;2023-02-28T11:21:18;97138.72;;;7.87;41.10
21821;BME280;11073;48.586;12.066;2023-02-28T11:24:21;97129.78;;;7.80;40.65
21821;BME280;11073;48.586;12.066;2023-02-28T11:27:25;97134.78;;;7.96;40.97
21821;BME280;11073;48.586;12.066;2023-02-28T11:30:25;97129.25;;;8.37;40.69
21821;BME280;11073;48.586;12.066;2023-02-28T11:33:23;97135.06;;;8.41;40.52
21821;BME280;11073;48.586;12.066;2023-02-28T11:36:17;97131.72;;;8.45;40.24
21821;BME280;11073;48.586;12.066;2023-02-28T11:39:10;97115.13;;;8.42;39.91
21821;BME280;11073;48.586;12.066;2023-02-28T11:45:23;97119.97;;;9.11;39.60
21821;BME280;11073;48.586;12.066;2023-02-28T11:48:20;97121.59;;;9.25;39.50
21821;BME280;11073;48.586;12.066;2023-02-28T11:51:15;97116.69;;;9.02;38.58
21821;BME280;11073;48.586;12.066;2023-02-28T11:54:23;97122.94;;;8.96;38.91
21821;BME280;11073;48.586;12.066;2023-02-28T11:57:32;97115.28;;;9.45;38.86
21821;BME280;11073;48.586;12.066;2023-02-28T12:00:38;97102.28;;;9.66;38.94
21821;BME280;11073;48.586;12.066;2023-02-28T12:03:36;97092.19;;;10.12;38.57
21821;BME280;11073;48.586;12.066;2023-02-28T12:06:33;97101.34;;;9.86;38.11
21821;BME280;11073;48.586;12.066;2023-02-28T12:09:40;97101.81;;;10.08;38.26
21821;BME280;11073;48.586;12.066;2023-02-28T12:12:39;97096.28;;;9.96;37.51
21821;BME280;11073;48.586;12.066;2023-02-28T12:15:44;97111.75;;;9.82;37.54
21821;BME280;11073;48.586;12.066;2023-02-28T12:18:59;97111.44;;;9.97;37.87
21821;BME280;11073;48.586;12.066;2023-02-28T12:22:12;97112.94;;;10.49;37.48
21821;BME280;11073;48.586;12.066;2023-02-28T12:28:33;97104.38;;;10.96;36.96
21821;BME280;11073;48.586;12.066;2023-02-28T12:31:24;97093.75;;;10.76;36.34
21821;BME280;11073;48.586;12.066;2023-02-28T12:34:18;97102.50;;;10.96;36.25
21821;BME280;11073;48.586;12.066;2023-02-28T12:37:13;97099.19;;;10.94;36.29
21821;BME280;11073;48.586;12.066;2023-02-28T12:40:09;97096.53;;;11.43;35.96
21821;BME280;11073;48.586;12.066;2023-02-28T12:43:04;97090.00;;;11.32;35.54
21821;BME280;11073;48.586;12.066;2023-02-28T12:45:57;97090.06;;;11.07;35.36
21821;BME280;11073;48.586;12.066;2023-02-28T12:48:50;97086.91;;;11.47;35.99
21821;BME280;11073;48.586;12.066;2023-02-28T12:51:41;97081.56;;;11.89;35.82
21821;BME280;11073;48.586;12.066;2023-02-28T12:54:33;97089.22;;;11.92;35.19
21821;BME280;11073;48.586;12.066;2023-02-28T12:57:28;97085.94;;;11.71;35.13
21821;BME280;11073;48.586;12.066;2023-02-28T13:00:23;97082.31;;;11.77;34.95
21821;BME280;11073;48.586;12.066;2023-02-28T13:03:31;97082.06;;;12.09;34.94
21821;BME280;11073;48.586;12.066;2023-02-28T13:06:38;97079.16;;;12.22;34.45
21821;BME280;11073;48.586;12.066;2023-02-28T13:09:30;97082.44;;;12.12;34.46
21821;BME280;11073;48.586;12.066;2023-02-28T13:12:19;97078.84;;;12.00;33.86
21821;BME280;11073;48.586;12.066;2023-02-28T13:15:18;97072.38;;;11.71;34.33
21821;BME280;11073;48.586;12.066;2023-02-28T13:18:30;97069.09;;;12.23;34.16
21821;BME280;11073;48.586;12.066;2023-02-28T13:21:23;97085.09;;;12.66;34.20
21821;BME280;11073;48.586;12.066;2023-02-28T13:24:40;97078.91;;;12.12;33.58
21821;BME280;11073;48.586;12.066;2023-02-28T13:27:36;97087.75;;;12.19;33.93
21821;BME280;11073;48.586;12.066;2023-02-28T13:31:03;97087.19;;;12.29;33.81
21821;BME280;11073;48.586;12.066;2023-02-28T13:34:13;97078.94;;;12.35;33.66
21821;BME280;11073;48.586;12.066;2023-02-28T13:37:34;97080.25;;;12.80;33.67
21821;BME280;11073;48.586;12.066;2023-02-28T13:40:31;97081.38;;;13.31;33.78
21821;BME280;11073;48.586;12.066;2023-02-28T13:44:00;97081.31;;;12.90;33.21
21821;BME280;11073;48.586;12.066;2023-02-28T13:47:19;97080.00;;;13.05;33.03
21821;BME280;11073;48.586;12.066;2023-02-28T13:50:21;97078.81;;;12.89;32.65
21821;BME280;11073;48.586;12.066;2023-02-28T13:53:54;97086.63;;;12.97;33.04
21821;BME280;11073;48.586;12.066;2023-02-28T13:56:53;97074.44;;;13.00;32.61
21821;BME280;11073;48.586;12.066;2023-02-28T13:59:50;97076.47;;;12.57;32.69
21821;BME280;11073;48.586;12.066;2023-02-28T14:03:14;97075.88;;;12.79;32.86
21821;BME280;11073;48.586;12.066;2023-02-28T14:06:22;97074.47;;;12.76;32.75
21821;BME280;11073;48.586;12.066;2023-02-28T14:09:21;97067.03;;;12.83;32.72
21821;BME280;11073;48.586;12.066;2023-02-28T14:15:56;97083.31;;;12.95;32.29
21821;BME280;11073;48.586;12.066;2023-02-28T14:18:49;97076.81;;;12.49;32.58
21821;BME280;11073;48.586;12.066;2023-02-28T14:21:49;97081.09;;;12.68;32.77
21821;BME280;11073;48.586;12.066;2023-02-28T14:25:04;97075.66;;;12.68;32.42
21821;BME280;11073;48.586;12.066;2023-02-28T14:28:02;97072.56;;;12.65;32.81
21821;BME280;11073;48.586;12.066;2023-02-28T14:31:01;97075.22;;;12.06;32.57
21821;BME280;11073;48.586;12.066;2023-02-28T14:34:21;97074.63;;;12.16;32.90
21821;BME280;11073;48.586;12.066;2023-02-28T14:37:16;97074.72;;;11.98;32.73
21821;BME280;11073;48.586;12.066;2023-02-28T14:40:12;97070.16;;;11.80;33.13
21821;BME280;11073;48.586;12.066;2023-02-28T14:43:05;97074.44;;;12.29;33.39
21821;BME280;11073;48.586;12.066;2023-02-28T14:45:56;97079.25;;;12.15;33.23
21821;BME280;11073;48.586;12.066;2023-02-28T14:48:48;97087.28;;;12.22;33.26
21821;BME280;11073;48.586;12.066;2023-02-28T14:51:37;97070.13;;;11.98;32.77
21821;BME280;11073;48.586;12.066;2023-02-28T14:54:27;97073.19;;;12.02;33.29
21821;BME280;11073;48.586;12.066;2023-02-28T14:57:25;97077.88;;;12.25;33.18
21821;BME280;11073;48.586;12.066;2023-02-28T15:00:18;97078.44;;;12.27;33.19
21821;BME280;11073;48.586;12.066;2023-02-28T15:03:19;97072.28;;;11.78;33.07
21821;BME280;11073;48.586;12.066;2023-02-28T15:06:14;97076.53;;;11.74;32.94
21821;BME280;11073;48.586;12.066;2023-02-28T15:09:15;97072.78;;;11.56;33.51
21821;BME280;11073;48.586;12.066;2023-02-28T15:12:06;97069.97;;;11.33;33.66
21821;BME280;11073;48.586;12.066;2023-02-28T15:14:56;97072.44;;;11.53;33.69
21821;BME280;11073;48.586;12.066;2023-02-28T15:17:46;97083.28;;;11.35;33.74
21821;BME280;11073;48.586;12.066;2023-02-28T15:20:39;97082.19;;;11.24;33.58
21821;BME280;11073;48.586;12.066;2023-02-28T15:23:29;97074.72;;;11.19;34.01
21821;BME280;11073;48.586;12.066;2023-02-28T15:26:20;97085.56;;;10.83;33.84
21821;BME280;11073;48.586;12.066;2023-02-28T15:29:14;97083.81;;;10.70;34.36